createdAt,value
2023-04-23T00:04:52.901Z,99132.72
2023-04-23T00:09:57.832Z,99132.53
2023-04-23T00:15:00.464Z,99136.97
2023-04-23T00:20:02.347Z,99135.13
2023-04-23T00:25:04.381Z,99139.81
2023-04-23T00:30:06.977Z,99146.13
2023-04-23T00:35:09.018Z,99150.84
2023-04-23T00:40:11.854Z,99143.03
2023-04-23T00:45:14.111Z,99148.94
2023-04-23T00:50:16.025Z,99143.97
2023-04-23T00:55:21.045Z,99136.63
2023-04-23T01:00:22.824Z,99146.47
2023-04-23T01:05:25.025Z,99148.03
2023-04-23T01:10:27.051Z,99149.94
2023-04-23T01:15:28.830Z,99154.69
2023-04-23T01:20:30.729Z,99146.00
2023-04-23T01:25:32.700Z,99156.00
2023-04-23T01:30:35.321Z,99157.19
2023-04-23T01:35:37.185Z,99155.19
2023-04-23T01:40:39.020Z,99148.63
2023-04-23T01:45:41.842Z,99163.66
2023-04-23T01:50:44.067Z,99168.19
2023-04-23T01:55:47.540Z,99173.78
2023-04-23T02:00:52.447Z,99174.63
2023-04-23T02:05:55.574Z,99170.81
2023-04-23T02:10:57.409Z,99177.59
2023-04-23T02:15:59.446Z,99174.13
2023-04-23T02:21:02.017Z,99154.69
2023-04-23T02:26:03.851Z,99164.34
2023-04-23T02:31:06.609Z,99170.03
2023-04-23T02:36:10.722Z,99159.81
2023-04-23T02:41:12.579Z,99165.41
2023-04-23T02:46:14.502Z,99171.34
2023-04-23T02:51:16.598Z,99175.25
2023-04-23T02:56:18.370Z,99177.03
2023-04-23T03:01:20.509Z,99179.09
2023-04-23T03:06:22.475Z,99183.44
2023-04-23T03:11:24.248Z,99185.81
2023-04-23T03:16:28.537Z,99190.38
2023-04-23T03:21:30.796Z,99196.19
2023-04-23T03:26:32.657Z,99191.78
2023-04-23T03:31:34.520Z,99195.94
2023-04-23T03:36:36.756Z,99195.84
2023-04-23T03:41:38.797Z,99196.53
2023-04-23T03:46:41.552Z,99185.72
2023-04-23T03:51:43.806Z,99187.13
2023-04-23T03:56:46.131Z,99187.00
2023-04-23T04:01:58.570Z,99193.91
2023-04-23T04:07:01.520Z,99191.75
2023-04-23T04:12:04.247Z,99196.16
2023-04-23T04:17:06.137Z,99199.88
2023-04-23T04:22:07.883Z,99206.41
2023-04-23T04:27:09.862Z,99200.81
2023-04-23T04:32:11.668Z,99200.59
2023-04-23T04:37:13.399Z,99195.09
2023-04-23T04:42:15.772Z,99199.88
2023-04-23T04:47:17.955Z,99200.34
2023-04-23T04:52:20.052Z,99188.91
2023-04-23T04:57:23.000Z,99182.22
2023-04-23T05:02:25.003Z,99176.28
2023-04-23T05:07:26.818Z,99177.09
2023-04-23T05:12:28.576Z,99187.13
2023-04-23T05:17:30.406Z,99189.16
2023-04-23T05:22:32.510Z,99190.09
2023-04-23T05:27:34.886Z,99191.88
2023-04-23T05:32:37.106Z,99197.25
2023-04-23T05:37:38.936Z,99213.22
2023-04-23T05:42:40.744Z,99217.75
2023-04-23T05:47:42.571Z,99235.13
2023-04-23T05:52:44.484Z,99233.47
2023-04-23T05:57:46.463Z,99218.00
2023-04-23T06:02:48.374Z,99206.59
2023-04-23T06:07:50.175Z,99201.44
2023-04-23T06:12:55.809Z,99203.28
2023-04-23T06:17:57.890Z,99206.44
2023-04-23T06:22:59.939Z,99200.19
2023-04-23T06:28:01.659Z,99194.34
2023-04-23T06:33:13.519Z,99186.41
2023-04-23T06:38:15.369Z,99169.72
2023-04-23T06:43:17.173Z,99173.25
2023-04-23T06:48:57.421Z,99174.31
2023-04-23T06:53:59.286Z,99173.38
2023-04-23T06:59:01.298Z,99184.31
2023-04-23T07:04:04.333Z,99165.97
2023-04-23T07:09:06.310Z,99146.34
2023-04-23T07:14:09.180Z,99149.66
2023-04-23T07:19:11.025Z,99141.59
2023-04-23T07:24:12.754Z,99143.03
2023-04-23T07:29:15.477Z,99150.94
2023-04-23T07:34:17.225Z,99149.13
2023-04-23T07:39:19.013Z,99166.06
2023-04-23T07:44:20.871Z,99154.41
2023-04-23T07:49:22.647Z,99151.19
2023-04-23T07:54:25.643Z,99153.00
2023-04-23T07:59:27.571Z,99160.63
2023-04-23T08:04:29.389Z,99153.72
2023-04-23T08:09:31.473Z,99152.72
2023-04-23T08:14:33.241Z,99148.03
2023-04-23T08:19:38.166Z,99146.22
2023-04-23T08:24:39.892Z,99145.94
2023-04-23T08:29:41.875Z,99140.00
2023-04-23T08:34:43.877Z,99129.88
2023-04-23T08:39:45.831Z,99124.75
2023-04-23T08:44:47.681Z,99115.13
2023-04-23T08:49:54.693Z,99120.03
2023-04-23T08:55:01.188Z,99123.94
2023-04-23T09:00:06.517Z,99133.38
2023-04-23T09:05:09.323Z,99123.59
2023-04-23T09:10:15.477Z,99106.38
2023-04-23T09:15:18.860Z,99090.69
2023-04-23T09:20:21.513Z,99087.59
2023-04-23T09:25:24.291Z,99084.09
2023-04-23T09:30:27.619Z,99078.53
2023-04-23T09:35:29.540Z,99067.81
2023-04-23T09:40:31.433Z,99056.06
2023-04-23T09:45:35.274Z,99045.81
2023-04-23T09:50:40.930Z,99047.50
2023-04-23T09:55:45.031Z,99047.19
2023-04-23T10:00:47.909Z,99048.34
2023-04-23T10:06:00.483Z,99041.38
2023-04-23T10:11:14.132Z,99031.88
2023-04-23T10:16:26.883Z,99026.06
2023-04-23T10:21:46.706Z,99016.00
2023-04-23T10:26:59.792Z,98997.56
2023-04-23T10:32:06.614Z,99014.28
2023-04-23T10:37:08.751Z,99005.28
2023-04-23T10:42:13.551Z,99001.41
2023-04-23T10:47:16.666Z,99002.69
2023-04-23T10:52:21.697Z,98992.94
2023-04-23T10:57:24.734Z,98985.47
2023-04-23T11:02:42.821Z,98985.97
2023-04-23T11:08:18.264Z,98978.09
2023-04-23T11:13:24.474Z,98979.97
2023-04-23T11:18:27.672Z,98975.75
2023-04-23T11:23:33.080Z,98976.13
2023-04-23T11:28:36.714Z,98970.38
2023-04-23T11:33:39.122Z,98958.78
2023-04-23T11:38:41.806Z,98947.31
2023-04-23T11:43:43.573Z,98947.31
2023-04-23T11:48:45.416Z,98942.81
2023-04-23T11:53:48.336Z,98934.59
2023-04-23T11:59:03.745Z,98922.72
2023-04-23T12:04:17.058Z,98909.16
2023-04-23T12:09:21.188Z,98902.50
2023-04-23T12:14:31.110Z,98898.75
2023-04-23T12:19:32.984Z,98898.50
2023-04-23T12:24:51.424Z,98882.31
2023-04-23T12:30:01.052Z,98871.59
2023-04-23T12:35:06.152Z,98862.81
2023-04-23T12:40:08.933Z,98860.50
2023-04-23T12:45:10.836Z,98851.88
2023-04-23T12:50:12.698Z,98844.47
2023-04-23T12:55:14.473Z,98826.69
2023-04-23T13:00:16.604Z,98834.22
2023-04-23T13:05:18.858Z,98826.88
2023-04-23T13:10:20.819Z,98815.34
2023-04-23T13:15:22.694Z,98813.38
2023-04-23T13:20:26.225Z,98807.44
2023-04-23T13:25:28.017Z,98795.28
2023-04-23T13:30:29.942Z,98794.69
2023-04-23T13:35:31.761Z,98788.63
2023-04-23T13:40:33.579Z,98786.91
2023-04-23T13:45:35.316Z,98774.09
2023-04-23T13:50:37.180Z,98767.03
2023-04-23T13:55:39.549Z,98764.22
2023-04-23T14:00:42.634Z,98771.50
2023-04-23T14:05:44.378Z,98760.69
2023-04-23T14:10:46.587Z,98751.00
2023-04-23T14:15:48.811Z,98736.78
2023-04-23T14:20:51.261Z,98711.97
2023-04-23T14:26:04.579Z,98707.75
2023-04-23T14:31:07.287Z,98692.94
2023-04-23T14:36:09.077Z,98679.16
2023-04-23T14:41:10.870Z,98680.38
2023-04-23T14:46:12.668Z,98668.56
2023-04-23T14:51:14.558Z,98661.13
2023-04-23T14:56:16.731Z,98656.91
2023-04-23T15:01:18.704Z,98652.34
2023-04-23T15:06:21.247Z,98650.59
2023-04-23T15:11:23.282Z,98656.88
2023-04-23T15:16:46.602Z,98650.41
2023-04-23T15:21:50.061Z,98648.91
2023-04-23T15:26:53.409Z,98640.66
2023-04-23T15:31:58.376Z,98631.47
2023-04-23T15:37:00.736Z,98631.97
2023-04-23T15:42:03.358Z,98627.34
2023-04-23T15:47:05.120Z,98613.00
2023-04-23T15:52:07.129Z,98613.31
2023-04-23T15:57:10.511Z,98614.88
2023-04-23T16:02:12.948Z,98604.81
2023-04-23T16:07:14.774Z,98603.75
2023-04-23T16:12:16.610Z,98606.91
2023-04-23T16:17:18.625Z,98645.91
2023-04-23T16:22:20.468Z,98695.53
2023-04-23T16:27:23.426Z,98725.84
2023-04-23T16:32:25.567Z,98700.31
2023-04-23T16:37:27.470Z,98687.84
2023-04-23T16:42:29.374Z,98672.03
2023-04-23T16:47:31.174Z,98672.63
2023-04-23T16:52:33.077Z,98680.63
2023-04-23T16:57:36.882Z,98681.47
2023-04-23T17:02:39.311Z,98676.81
2023-04-23T17:07:44.428Z,98680.81
2023-04-23T17:12:46.358Z,98679.16
2023-04-23T17:17:48.472Z,98673.59
2023-04-23T17:22:50.696Z,98673.16
2023-04-23T17:27:52.454Z,98659.97
2023-04-23T17:32:54.323Z,98661.94
2023-04-23T17:37:56.381Z,98664.66
2023-04-23T17:42:58.720Z,98660.72
2023-04-23T17:48:01.397Z,98636.63
2023-04-23T17:53:06.125Z,98624.22
2023-04-23T17:58:09.590Z,98617.31
2023-04-23T18:03:16.540Z,98613.84
2023-04-23T18:08:21.154Z,98597.16
2023-04-23T18:13:22.995Z,98601.97
2023-04-23T18:18:24.746Z,98600.34
2023-04-23T18:23:26.570Z,98604.75
2023-04-23T18:28:28.948Z,98597.28
2023-04-23T18:33:35.965Z,98600.47
2023-04-23T18:38:47.389Z,98621.91
2023-04-23T18:43:50.336Z,98610.44
2023-04-23T18:49:09.660Z,98629.25
2023-04-23T18:54:15.059Z,98621.19
2023-04-23T18:59:17.096Z,98623.97
2023-04-23T19:04:19.050Z,98614.31
2023-04-23T19:09:20.965Z,98619.38
2023-04-23T19:14:22.770Z,98630.00
2023-04-23T19:19:25.116Z,98635.69
2023-04-23T19:24:26.954Z,98641.19
2023-04-23T19:29:28.688Z,98638.56
2023-04-23T19:34:30.843Z,98649.47
2023-04-23T19:39:32.570Z,98650.44
2023-04-23T19:44:34.317Z,98647.22
2023-04-23T19:49:36.050Z,98662.53
2023-04-23T19:54:37.857Z,98661.00
2023-04-23T19:59:39.699Z,98679.66
2023-04-23T20:04:41.670Z,98679.56
2023-04-23T20:09:44.921Z,98682.66
2023-04-23T20:14:47.362Z,98687.56
2023-04-23T20:19:50.374Z,98687.09
2023-04-23T20:24:52.897Z,98680.78
2023-04-23T20:29:54.801Z,98678.50
2023-04-23T20:34:58.012Z,98677.28
2023-04-23T20:40:00.341Z,98666.09
2023-04-23T20:45:02.074Z,98662.56
2023-04-23T20:50:04.035Z,98666.84
2023-04-23T20:55:06.129Z,98663.88
2023-04-23T21:00:11.754Z,98656.19
2023-04-23T21:05:13.602Z,98652.31
2023-04-23T21:10:15.339Z,98645.16
2023-04-23T21:15:17.993Z,98651.41
2023-04-23T21:20:19.770Z,98652.97
2023-04-23T21:25:21.593Z,98647.72
2023-04-23T21:30:37.954Z,98657.34
2023-04-23T21:35:39.821Z,98651.41
2023-04-23T21:40:41.632Z,98656.97
2023-04-23T21:45:43.403Z,98671.31
2023-04-23T21:50:45.481Z,98665.97
2023-04-23T21:55:47.274Z,98659.34
2023-04-23T22:00:49.166Z,98666.53
2023-04-23T22:05:52.340Z,98670.09
2023-04-23T22:10:54.174Z,98664.75
2023-04-23T22:15:57.375Z,98673.91
2023-04-23T22:20:59.201Z,98669.78
2023-04-23T22:26:00.931Z,98683.44
2023-04-23T22:31:02.741Z,98672.97
2023-04-23T22:36:05.662Z,98674.63
2023-04-23T22:41:07.813Z,98668.69
2023-04-23T22:46:09.735Z,98673.75
2023-04-23T22:51:12.069Z,98679.69
2023-04-23T22:56:13.910Z,98684.81
2023-04-23T23:01:16.892Z,98673.75
2023-04-23T23:06:18.680Z,98668.41
2023-04-23T23:11:21.051Z,98667.09
2023-04-23T23:16:23.590Z,98660.41
2023-04-23T23:21:25.764Z,98652.44
2023-04-23T23:26:27.798Z,98658.25
2023-04-23T23:31:29.682Z,98642.34
2023-04-23T23:36:32.969Z,98629.34
2023-04-23T23:41:34.775Z,98629.75
2023-04-23T23:46:36.663Z,98626.81
2023-04-23T23:51:38.460Z,98627.13
2023-04-23T23:56:40.563Z,98613.13
